SBOSBO LDY / EGAE
Speedbird OnlineSpeedbird Online LDY / EGAE

City of Derry Airport
09:29 17°C

Location Londonderry, United Kingdom
Latitude: 55.04280090332031
Longitude: -7.161109924316406
Local Time 09:29 on 18 Jul 2024
UTC +1 hours (Europe/London)
METAR EGAE 180750Z 20011KT 9999 SCT010 17/15 Q1013
TAF TAF EGAE 180530Z 1806/1815 18009KT 9999 SCT010 BKN040 TEMPO 1806/1809 6000 RA BKN010 BECMG 1809/1812 BKN010 TEMPO 1809/1815 3000 RADZ BKN006
Weather As Of 18 Jul 2024 09:29
Description Scattered clouds
Wind 20 km/h from South (200°)
Cloud Cover 40%
Precipitation Rain: none, Snow: none
Sunrise 05:14
Sunset 21:54
NOTAM 4 active NOTAM
Rotations During the last 90 days there were
6 flights from FAO
6 flights to FAO
Web Airport Website | Wikipedia
Codes IATA: LDY
ICAO: EGAE
Altitude 7 Meter / 22 Feet
Distance 623 KM / 387 Miles
from London.
Runways
RunwayLength (m)Surface
021205Asphalt
081969Asphalt
201205Asphalt
261969Asphalt
Radio
TypeDescriptionFrequency
APPEglinton Approach123.625
ATISEglinton Information119.38
TWREglinton Tower134.155
Live ATC



Support Speedbird Online

© 2017-2024 Speedbird Online